バミューダ の空港の天気 - METARとTAF

バミューダ国際空港 ( TXKF / BDA ) - バミューダ諸島 Ferry Reach
飛行場実況気象(Metar)
観測時間05/29 12:55 ADT (05/29 15:55 UTC)
風向・風速東 4m/s
視程10km以上
天気現象
少しの雲 雲底高度 850m
気温24℃
湿度65%
気圧1026hPa
METARTXKF 291555Z 10008KT 060V130 9999 FEW028 24/17 Q1026
過去の天気等 Google飛行場航空写真 Wunderground天気予報

過去48時間のMETAR

飛行場予報(TAF)
発表時間: 5/29 08:30 ADT (5/29 11:30 UTC)
予報対象時間: 29日9時 ADT ~ 30日9時 ADT
風向・風速東 4m/s
視程10km以上
全天の4割程度の雲 雲底高度 610m
TAF TXKF 291130Z 2912/3012 09008KT 9999 SCT020